Time;durP1;ratioP1;P1;durP2;ratioP2;P2;SDS_P1;SDS_P2;PMS_P1;PMS_P2;Temp;Humidity;BMP_temperature;BMP_pressure;BME280_temperature;BME280_humidity;BME280_pressure;Samples;Min_cycle;Max_cycle;Signal;HPM_P1;HPM_P2
2023/10/12 00:00:29;;;;;;;4.45;2.70;;;20.40;68.40;;;;;;5034539;28;20091;-55
2023/10/12 00:02:58;;;;;;;4.15;2.67;;;20.50;68.50;;;;;;5037007;28;20029;-51
2023/10/12 00:05:27;;;;;;;3.75;2.67;;;20.40;68.40;;;;;;5034885;28;20033;-50
2023/10/12 00:07:56;;;;;;;5.60;2.90;;;20.40;68.40;;;;;;5034996;28;20027;-51
2023/10/12 00:10:23;;;;;;;4.28;2.70;;;20.40;68.40;;;;;;5038113;28;20033;-51
2023/10/12 00:12:50;;;;;;;4.53;3.00;;;20.40;68.40;;;;;;5033734;28;20863;-49
2023/10/12 00:17:47;;;;;;;5.03;3.05;;;20.40;68.30;;;;;;5030083;28;20029;-46
2023/10/12 00:20:34;;;;;;;4.60;2.67;;;20.50;68.40;;;;;;5034631;28;20840;-47
2023/10/12 00:23:10;;;;;;;5.57;2.97;;;20.50;68.50;;;;;;5036035;28;20601;-47
2023/10/12 00:25:47;;;;;;;5.03;3.05;;;20.40;68.40;;;;;;5038528;28;20201;-48
2023/10/12 00:28:19;;;;;;;4.88;2.90;;;20.40;68.40;;;;;;5039113;28;20446;-54
2023/10/12 00:30:47;;;;;;;4.30;2.90;;;20.50;68.40;;;;;;5038834;28;20108;-50
2023/10/12 00:33:13;;;;;;;6.50;3.63;;;20.40;68.40;;;;;;5036791;28;20510;-49
2023/10/12 00:35:39;;;;;;;4.30;2.65;;;20.40;68.40;;;;;;5040938;28;20060;-55
2023/10/12 00:38:18;;;;;;;5.07;2.75;;;20.50;68.50;;;;;;5034180;28;20406;-53
2023/10/12 00:40:50;;;;;;;3.75;2.53;;;20.50;68.50;;;;;;5040290;28;20557;-49
2023/10/12 00:43:16;;;;;;;5.00;2.75;;;20.40;68.50;;;;;;5037732;28;20060;-47
2023/10/12 00:45:42;;;;;;;4.47;3.05;;;20.40;68.50;;;;;;5040368;28;20079;-49
2023/10/12 00:48:10;;;;;;;4.00;2.58;;;20.40;68.50;;;;;;5032585;28;20674;-49
2023/10/12 00:50:36;;;;;;;4.65;2.65;;;20.40;68.50;;;;;;5039731;28;20053;-47
2023/10/12 00:53:31;;;;;;;3.97;2.60;;;20.40;68.50;;;;;;5040091;28;20131;-49
2023/10/12 00:55:50;;;;;;;5.30;2.75;;;20.50;68.50;;;;;;5038452;28;20044;-52
2023/10/12 00:58:17;;;;;;;4.68;2.60;;;20.40;68.50;;;;;;5039921;28;20160;-48
2023/10/12 01:00:46;;;;;;;4.43;2.75;;;20.40;68.50;;;;;;5038979;28;20037;-52
2023/10/12 01:03:31;;;;;;;4.82;3.22;;;20.40;68.50;;;;;;5037487;28;20036;-50
2023/10/12 01:08:46;;;;;;;4.03;2.40;;;20.40;68.50;;;;;;5037942;28;20355;-53
2023/10/12 01:11:26;;;;;;;4.65;3.00;;;20.40;68.50;;;;;;5039677;28;20518;-47
2023/10/12 01:16:43;;;;;;;5.60;2.90;;;20.50;68.50;;;;;;5039322;28;20033;-50
2023/10/12 01:19:10;;;;;;;3.25;2.33;;;20.50;68.50;;;;;;5037916;28;20021;-47
2023/10/12 01:21:36;;;;;;;4.78;2.67;;;20.40;68.50;;;;;;5040592;28;20036;-49
2023/10/12 01:24:14;;;;;;;3.80;2.88;;;20.40;68.50;;;;;;5041251;28;20084;-48
2023/10/12 01:26:44;;;;;;;4.43;2.75;;;20.40;68.50;;;;;;5037671;28;20039;-47
2023/10/12 01:29:19;;;;;;;4.60;2.60;;;20.40;68.50;;;;;;5039690;28;20485;-49
2023/10/12 01:31:51;;;;;;;4.75;2.70;;;20.40;68.60;;;;;;5042872;28;20036;-50
2023/10/12 01:34:17;;;;;;;5.88;3.00;;;20.40;68.60;;;;;;5041642;28;20116;-49
2023/10/12 01:36:43;;;;;;;4.07;2.50;;;20.50;68.60;;;;;;5041196;28;20116;-48
2023/10/12 01:39:14;;;;;;;3.50;2.20;;;20.50;68.60;;;;;;5046218;28;20029;-49
2023/10/12 01:41:43;;;;;;;3.78;2.45;;;20.40;68.50;;;;;;5008812;28;20458;-49
2023/10/12 01:44:12;;;;;;;2.83;2.22;;;20.50;68.60;;;;;;5035651;28;20052;-49
2023/10/12 01:46:39;;;;;;;2.63;2.15;;;20.40;68.50;;;;;;5039505;28;20525;-48
2023/10/12 01:49:06;;;;;;;5.15;2.75;;;20.40;68.60;;;;;;5039066;28;20081;-49
2023/10/12 01:51:33;;;;;;;3.88;2.17;;;20.50;68.60;;;;;;5038863;28;20516;-48
2023/10/12 01:53:59;;;;;;;3.25;2.40;;;20.40;68.60;;;;;;5038940;28;20037;-49
2023/10/12 01:56:29;;;;;;;6.25;3.03;;;20.40;68.60;;;;;;5039384;28;20033;-51
2023/10/12 01:58:55;;;;;;;3.80;2.63;;;20.50;68.70;;;;;;5037666;28;20060;-51
2023/10/12 02:01:21;;;;;;;4.78;2.95;;;20.50;68.70;;;;;;5040629;28;20510;-49
2023/10/12 02:03:57;;;;;;;4.05;2.60;;;20.40;68.60;;;;;;5038764;28;20057;-47
2023/10/12 02:06:28;;;;;;;3.30;2.55;;;20.50;68.70;;;;;;5039651;28;20108;-48
2023/10/12 02:08:54;;;;;;;4.15;2.80;;;20.40;68.60;;;;;;5037354;28;20043;-57
2023/10/12 02:13:51;;;;;;;4.45;2.47;;;20.40;68.60;;;;;;5038121;28;20037;-53
2023/10/12 02:16:30;;;;;;;5.05;2.92;;;20.40;68.60;;;;;;5039427;28;20037;-51
2023/10/12 02:18:55;;;;;;;3.50;2.53;;;20.40;68.60;;;;;;5038122;28;20040;-49
2023/10/12 02:21:22;;;;;;;3.13;2.45;;;20.40;68.60;;;;;;5041045;28;20033;-48
2023/10/12 02:24:09;;;;;;;3.30;2.33;;;20.40;68.70;;;;;;5040187;28;20029;-47
2023/10/12 02:26:36;;;;;;;4.20;2.75;;;20.40;68.60;;;;;;5035974;28;20040;-49
2023/10/12 02:31:38;;;;;;;4.32;2.78;;;20.40;68.60;;;;;;5035911;28;20032;-51
2023/10/12 02:34:13;;;;;;;3.78;2.55;;;20.50;68.70;;;;;;5039321;28;20044;-48
2023/10/12 02:36:39;;;;;;;3.65;2.47;;;20.40;68.60;;;;;;5039693;28;20029;-48
2023/10/12 02:39:10;;;;;;;3.67;2.67;;;20.50;68.70;;;;;;5036539;28;20677;-50
2023/10/12 02:41:45;;;;;;;3.53;2.28;;;20.50;68.70;;;;;;5040249;28;20105;-48
2023/10/12 02:44:14;;;;;;;4.40;2.72;;;20.50;68.70;;;;;;5039954;28;20025;-50
2023/10/12 02:46:41;;;;;;;4.05;2.63;;;20.40;69.30;;;;;;5039194;28;20033;-49
2023/10/12 02:49:07;;;;;;;4.82;2.28;;;20.50;68.70;;;;;;5037801;28;20044;-49
2023/10/12 02:51:40;;;;;;;3.65;2.70;;;20.50;68.70;;;;;;5041183;28;20041;-48
2023/10/12 02:54:07;;;;;;;3.83;2.28;;;20.50;68.70;;;;;;5038599;28;20167;-51
2023/10/12 02:56:35;;;;;;;4.47;2.72;;;20.50;68.70;;;;;;5038580;28;20033;-47
2023/10/12 02:59:08;;;;;;;3.05;2.08;;;20.40;68.60;;;;;;5039145;28;20040;-49
2023/10/12 03:01:38;;;;;;;4.20;2.90;;;20.50;68.70;;;;;;5038990;28;20075;-48
2023/10/12 03:04:11;;;;;;;3.58;2.10;;;20.50;68.70;;;;;;5037967;28;20040;-47
2023/10/12 03:06:54;;;;;;;3.55;2.17;;;20.50;68.60;;;;;;5035945;28;20033;-46
2023/10/12 03:09:26;;;;;;;3.45;2.38;;;20.50;68.60;;;;;;5036913;28;20036;-48
2023/10/12 03:11:56;;;;;;;2.92;2.25;;;20.40;68.60;;;;;;5036583;28;20166;-47
2023/10/12 03:14:26;;;;;;;5.40;2.30;;;20.50;68.70;;;;;;5038332;28;20032;-49
2023/10/12 03:16:52;;;;;;;4.53;3.38;;;20.50;68.70;;;;;;5038498;28;20691;-49
2023/10/12 03:19:22;;;;;;;4.85;2.38;;;20.50;68.70;;;;;;5041896;28;20159;-47
2023/10/12 03:21:52;;;;;;;5.22;2.65;;;20.50;68.70;;;;;;5033531;28;20116;-47
2023/10/12 03:24:21;;;;;;;3.17;2.08;;;20.50;68.70;;;;;;5039055;28;20173;-46
2023/10/12 03:26:49;;;;;;;3.80;2.53;;;20.50;68.70;;;;;;5036443;28;20029;-46
2023/10/12 03:31:53;;;;;;;4.72;3.00;;;20.50;68.70;;;;;;5036448;28;20159;-47
2023/10/12 03:37:03;;;;;;;2.83;2.05;;;20.50;68.60;;;;;;5036264;28;20028;-48
2023/10/12 03:39:31;;;;;;;2.90;2.10;;;20.50;68.70;;;;;;5034301;28;20025;-46
2023/10/12 03:52:19;;;;;;;4.13;2.63;;;20.50;68.80;;;;;;5037614;28;20394;-52
2023/10/12 03:57:36;;;;;;;2.97;2.30;;;20.50;68.70;;;;;;5026509;28;20029;-49
2023/10/12 04:02:41;;;;;;;3.85;2.83;;;20.50;68.70;;;;;;5038807;28;20063;-51
2023/10/12 04:13:55;;;;;;;2.63;2.00;;;20.50;68.70;;;;;;5024797;28;20143;-49
2023/10/12 04:18:32;;;;;;;5.63;2.72;;;20.50;68.70;;;;;;5044540;28;20025;-50
2023/10/12 04:20:59;;;;;;;3.03;2.20;;;20.50;68.70;;;;;;5042075;28;20079;-48
2023/10/12 04:27:11;;;;;;;2.67;2.30;;;20.50;68.80;;;;;;5040860;28;20072;-48
2023/10/12 04:28:56;;;;;;;4.78;2.60;;;20.50;68.70;;;;;;5032024;28;20664;-52
2023/10/12 04:34:07;;;;;;;;;;;20.50;68.70;;;;;;5033575;28;20033;-49
2023/10/12 04:36:44;;;;;;;3.15;2.55;;;20.50;68.70;;;;;;5041051;28;19913;-48
2023/10/12 04:39:16;;;;;;;3.92;2.95;;;20.50;68.70;;;;;;5042576;28;20066;-49
2023/10/12 04:47:05;;;;;;;4.57;3.00;;;20.50;68.80;;;;;;5039209;28;20041;-48
2023/10/12 04:54:49;;;;;;;2.92;2.60;;;20.50;68.70;;;;;;5036379;28;20059;-53
2023/10/12 04:57:15;;;;;;;3.90;2.72;;;20.50;68.70;;;;;;5035484;28;20026;-54
2023/10/12 04:59:50;;;;;;;3.75;2.40;;;20.50;68.70;;;;;;5040356;28;20033;-50
2023/10/12 05:02:28;;;;;;;3.47;2.42;;;20.50;68.70;;;;;;5037718;28;20041;-47
2023/10/12 05:07:27;;;;;;;3.42;2.40;;;20.50;68.70;;;;;;5040148;28;20045;-49
2023/10/12 05:09:53;;;;;;;2.90;2.15;;;20.50;68.70;;;;;;5037127;28;20552;-52
2023/10/12 05:12:23;;;;;;;3.67;2.58;;;20.50;68.70;;;;;;5039776;28;20102;-50
2023/10/12 05:14:55;;;;;;;4.60;2.78;;;20.50;68.70;;;;;;5042945;28;20071;-53
2023/10/12 05:17:24;;;;;;;2.83;2.40;;;20.50;68.80;;;;;;5041927;28;20059;-49
2023/10/12 05:19:52;;;;;;;3.70;2.53;;;20.50;68.80;;;;;;5043343;28;20055;-49
2023/10/12 05:22:18;;;;;;;4.25;2.88;;;20.50;68.70;;;;;;5038559;28;20486;-48
2023/10/12 05:24:46;;;;;;;4.78;2.65;;;20.50;68.80;;;;;;5039119;28;20033;-47
2023/10/12 05:27:26;;;;;;;4.63;2.90;;;20.50;68.80;;;;;;5035299;28;20034;-48
2023/10/12 05:29:59;;;;;;;5.07;2.42;;;20.50;68.70;;;;;;5039231;28;20116;-48
2023/10/12 05:32:42;;;;;;;3.92;2.30;;;20.50;68.80;;;;;;5026874;28;20025;-52
2023/10/12 05:35:15;;;;;;;3.80;2.58;;;20.50;68.80;;;;;;5037427;28;20037;-47
2023/10/12 05:37:48;;;;;;;5.35;3.20;;;20.50;68.80;;;;;;5041602;28;20536;-50
2023/10/12 05:40:15;;;;;;;5.20;2.63;;;20.60;68.80;;;;;;5039809;28;20041;-54
2023/10/12 05:42:43;;;;;;;6.90;2.72;;;20.50;68.80;;;;;;5041337;28;20025;-48
2023/10/12 05:45:21;;;;;;;3.28;2.75;;;20.50;68.90;;;;;;5039956;28;20036;-50
2023/10/12 05:47:51;;;;;;;4.20;2.50;;;20.50;68.90;;;;;;5039114;28;20044;-47
2023/10/12 05:50:24;;;;;;;4.32;2.92;;;20.50;68.90;;;;;;5040721;28;20609;-53
2023/10/12 05:52:53;;;;;;;4.85;2.65;;;20.60;68.90;;;;;;5039780;28;20028;-49
2023/10/12 05:55:20;;;;;;;3.60;2.50;;;20.60;68.90;;;;;;5038964;28;20030;-49
2023/10/12 05:57:48;;;;;;;5.15;2.33;;;20.60;69.00;;;;;;5040525;28;20096;-51
2023/10/12 06:02:59;;;;;;;4.82;2.78;;;20.50;68.50;;;;;;5033793;28;20098;-50
2023/10/12 06:05:24;;;;;;;3.95;2.60;;;20.50;68.50;;;;;;5039789;28;20489;-53
2023/10/12 06:07:50;;;;;;;7.13;2.72;;;20.50;68.70;;;;;;5042375;28;20029;-53
2023/10/12 06:10:15;;;;;;;4.13;2.75;;;20.50;68.90;;;;;;5027617;28;20434;-47
2023/10/12 06:12:42;;;;;;;5.43;3.20;;;20.50;68.80;;;;;;5043815;28;20029;-49
2023/10/12 06:15:10;;;;;;;5.38;2.78;;;20.50;68.80;;;;;;5041286;28;20710;-46
2023/10/12 06:17:39;;;;;;;4.95;3.42;;;20.50;68.70;;;;;;5042497;28;20044;-51
2023/10/12 06:20:11;;;;;;;6.05;3.38;;;20.50;68.80;;;;;;5037269;28;20485;-54
2023/10/12 06:22:38;;;;;;;3.17;2.58;;;20.50;68.80;;;;;;5035370;28;20048;-54
2023/10/12 06:25:08;;;;;;;5.35;3.20;;;20.50;68.90;;;;;;5038034;28;20062;-47
2023/10/12 06:27:33;;;;;;;4.53;3.50;;;20.50;68.70;;;;;;5036304;28;20086;-48
2023/10/12 06:30:16;;;;;;;7.65;3.78;;;20.60;69.00;;;;;;5032871;28;20025;-47
2023/10/12 06:32:42;;;;;;;5.68;3.20;;;20.50;68.80;;;;;;5041522;28;20644;-54
2023/10/12 06:38:15;;;;;;;7.63;3.30;;;20.60;69.10;;;;;;5040591;28;20032;-51
2023/10/12 06:40:38;;;;;;;6.70;3.08;;;20.50;68.90;;;;;;5036148;28;20044;-47
2023/10/12 06:45:51;;;;;;;5.85;3.70;;;20.60;69.30;;;;;;5039426;28;20521;-50
2023/10/12 06:51:02;;;;;;;6.35;3.20;;;20.50;69.20;;;;;;5037393;28;20051;-52
2023/10/12 06:53:40;;;;;;;7.13;3.78;;;20.60;69.20;;;;;;5039427;28;20100;-49
2023/10/12 07:04:25;;;;;;;5.93;3.42;;;20.60;69.30;;;;;;5037021;28;20125;-50
2023/10/12 07:06:57;;;;;;;6.13;3.60;;;20.60;69.30;;;;;;5035871;28;20029;-54
2023/10/12 07:09:27;;;;;;;7.85;3.97;;;20.60;69.10;;;;;;5037190;28;20033;-47
2023/10/12 07:11:53;;;;;;;7.20;4.07;;;20.60;69.20;;;;;;5037462;28;20198;-49
2023/10/12 07:14:30;;;;;;;11.55;4.15;;;20.50;68.90;;;;;;5040726;28;20597;-50
2023/10/12 07:16:56;;;;;;;5.85;3.92;;;20.50;69.20;;;;;;5034509;28;20035;-48
2023/10/12 07:19:24;;;;;;;7.07;4.40;;;20.50;69.40;;;;;;5037863;28;20098;-50
2023/10/12 07:21:55;;;;;;;5.68;3.75;;;20.50;69.50;;;;;;5035789;28;20041;-48
2023/10/12 07:24:23;;;;;;;6.53;3.83;;;20.60;69.30;;;;;;5036630;28;20091;-53
2023/10/12 07:26:49;;;;;;;5.63;3.35;;;20.60;69.50;;;;;;5035012;28;20074;-53
2023/10/12 07:29:35;;;;;;;6.57;3.53;;;20.60;69.40;;;;;;5030777;28;20033;-52
2023/10/12 07:32:19;;;;;;;9.23;3.70;;;20.50;69.30;;;;;;5039314;28;20040;-50
2023/10/12 07:34:52;;;;;;;8.57;3.88;;;20.50;69.40;;;;;;5039337;28;20033;-50
2023/10/12 07:37:18;;;;;;;8.25;4.18;;;20.60;69.40;;;;;;5041967;28;20029;-52
2023/10/12 07:39:44;;;;;;;6.18;3.05;;;20.50;69.10;;;;;;5042820;28;20107;-52
2023/10/12 07:42:13;;;;;;;10.38;4.88;;;20.50;69.40;;;;;;5040529;28;20033;-53
2023/10/12 07:44:43;;;;;;;6.45;3.58;;;20.50;69.40;;;;;;5040508;28;20025;-51
2023/10/12 07:47:18;;;;;;;6.35;3.88;;;20.50;69.40;;;;;;5038346;28;20035;-51
2023/10/12 07:49:49;;;;;;;5.82;3.75;;;20.50;69.30;;;;;;5037525;28;20040;-47
2023/10/12 07:52:22;;;;;;;8.15;3.90;;;20.50;69.40;;;;;;5039143;28;20044;-52
2023/10/12 07:57:19;;;;;;;5.28;3.47;;;20.50;69.40;;;;;;5038112;28;20719;-51
2023/10/12 08:02:42;;;;;;;8.57;4.13;;;20.50;69.50;;;;;;5042740;28;20048;-53
2023/10/12 08:05:33;;;;;;;10.73;4.57;;;20.50;69.40;;;;;;5041547;28;20017;-51
2023/10/12 08:13:25;;;;;;;5.53;3.45;;;20.50;69.50;;;;;;5038351;28;20025;-51
2023/10/12 08:32:12;;;;;;;6.32;3.65;;;20.50;69.50;;;;;;5046696;28;20754;-48
2023/10/12 08:42:37;;;;;;;5.63;4.10;;;20.50;69.50;;;;;;5041654;28;20585;-48
2023/10/12 08:45:12;;;;;;;6.13;3.95;;;20.50;69.50;;;;;;5038955;28;20075;-51
2023/10/12 08:50:08;;;;;;;7.45;4.40;;;20.60;69.40;;;;;;5031541;28;20037;-54
2023/10/12 08:52:39;;;;;;;5.72;3.80;;;20.50;69.50;;;;;;5038979;28;20033;-49
2023/10/12 08:55:12;;;;;;;7.00;4.18;;;20.50;69.30;;;;;;5035364;28;20082;-50
2023/10/12 08:57:56;;;;;;;8.05;3.90;;;20.50;69.30;;;;;;5040147;28;20059;-47
2023/10/12 09:03:00;;;;;;;6.03;4.50;;;20.50;69.40;;;;;;5039273;28;20086;-50
2023/10/12 09:05:28;;;;;;;9.40;4.60;;;20.50;69.40;;;;;;5035829;28;20057;-51
2023/10/12 09:13:28;;;;;;;5.80;3.90;;;20.50;69.40;;;;;;5039662;28;20037;-51
2023/10/12 09:15:59;;;;;;;7.35;3.95;;;20.50;69.40;;;;;;5036567;28;20017;-50
2023/10/12 09:18:47;;;;;;;7.38;4.28;;;20.50;69.40;;;;;;5037808;28;20869;-49
2023/10/12 09:26:57;;;;;;;6.00;3.72;;;20.50;69.50;;;;;;5035305;28;20482;-48
2023/10/12 09:29:27;;;;;;;7.25;3.30;;;20.50;69.40;;;;;;5035732;28;20055;-47
2023/10/12 09:32:12;;;;;;;8.52;4.07;;;20.50;69.40;;;;;;5041345;28;20127;-51
2023/10/12 09:35:33;;;;;;;5.28;3.50;;;20.50;69.40;;;;;;5040155;28;20033;-46
2023/10/12 09:37:43;;;;;;;6.35;4.15;;;20.50;69.40;;;;;;5038686;28;20079;-50
2023/10/12 09:43:15;;;;;;;8.23;3.92;;;20.50;69.40;;;;;;4991788;28;20030;-48
2023/10/12 09:45:44;;;;;;;7.57;3.75;;;20.60;69.60;;;;;;5028044;28;20493;-51
2023/10/12 09:48:24;;;;;;;5.63;3.25;;;20.50;69.50;;;;;;5036875;28;20028;-50
2023/10/12 09:50:51;;;;;;;5.63;3.70;;;20.50;69.40;;;;;;5037516;23;20763;-55
2023/10/12 09:53:24;;;;;;;6.18;3.80;;;20.50;69.40;;;;;;5029382;28;20628;-48
2023/10/12 09:56:10;;;;;;;7.03;3.97;;;20.60;69.40;;;;;;5032950;28;20083;-48
2023/10/12 09:58:43;;;;;;;;;;;20.60;69.40;;;;;;5015874;28;21124;-48
2023/10/12 10:01:22;;;;;;;5.20;3.63;;;20.50;69.30;;;;;;5024920;28;19989;-48
2023/10/12 10:03:49;;;;;;;5.65;3.78;;;20.50;69.40;;;;;;5027766;28;20089;-49
2023/10/12 10:06:37;;;;;;;6.28;3.97;;;20.50;69.30;;;;;;5023573;28;20038;-51
2023/10/12 10:09:18;;;;;;;6.90;3.60;;;20.50;69.40;;;;;;5020987;28;20029;-49
2023/10/12 10:11:45;;;;;;;6.22;4.40;;;20.50;69.40;;;;;;5022258;28;20449;-51
2023/10/12 10:14:17;;;;;;;7.38;3.63;;;20.50;69.40;;;;;;5025667;28;20116;-50
2023/10/12 10:16:48;;;;;;;5.88;3.85;;;20.60;69.40;;;;;;5022107;28;20038;-47
2023/10/12 10:19:14;;;;;;;8.07;4.13;;;20.50;69.40;;;;;;5023785;28;20041;-52
2023/10/12 10:21:50;;;;;;;7.35;4.25;;;20.50;69.40;;;;;;5026654;28;20573;-52
2023/10/12 10:24:24;;;;;;;5.22;3.50;;;20.50;69.40;;;;;;5029932;28;20052;-53
2023/10/12 10:26:58;;;;;;;6.35;3.75;;;20.50;69.40;;;;;;5025080;28;20111;-53
2023/10/12 10:29:44;;;;;;;6.90;4.00;;;20.50;69.40;;;;;;5020609;28;20037;-49
2023/10/12 10:32:14;;;;;;;7.43;4.10;;;20.50;69.40;;;;;;5020649;28;20033;-50
2023/10/12 10:34:41;;;;;;;6.07;3.33;;;20.50;69.30;;;;;;5026168;28;20044;-52
2023/10/12 10:37:07;;;;;;;7.10;3.85;;;20.50;69.40;;;;;;5019314;28;20026;-50
2023/10/12 10:39:32;;;;;;;6.53;3.53;;;20.50;69.40;;;;;;5024923;28;20739;-50
2023/10/12 10:42:04;;;;;;;7.80;3.72;;;20.60;69.40;;;;;;5021999;28;20033;-48
2023/10/12 10:44:36;;;;;;;5.85;3.50;;;20.60;69.30;;;;;;5024909;28;20029;-47
2023/10/12 10:47:06;;;;;;;7.88;4.03;;;20.50;69.40;;;;;;5023838;28;20057;-49
2023/10/12 10:49:32;;;;;;;5.88;3.72;;;20.50;69.40;;;;;;5019585;28;20041;-50
2023/10/12 10:52:13;;;;;;;6.43;3.88;;;20.50;69.40;;;;;;5029652;28;20029;-48
2023/10/12 10:54:41;;;;;;;7.63;3.72;;;20.50;69.40;;;;;;5023214;28;20048;-47
2023/10/12 10:57:17;;;;;;;6.05;3.67;;;20.60;69.40;;;;;;5023022;28;20730;-48
2023/10/12 10:59:45;;;;;;;;;;;20.60;69.40;;;;;;5019557;28;20107;-49
2023/10/12 11:02:11;;;;;;;6.75;4.13;;;20.50;69.40;;;;;;5021426;28;20008;-48
2023/10/12 11:07:17;;;;;;;6.65;4.25;;;20.60;69.40;;;;;;5022675;28;20030;-47
2023/10/12 11:12:30;;;;;;;6.18;3.58;;;20.50;69.40;;;;;;5024155;28;20541;-49
2023/10/12 11:15:00;;;;;;;5.88;3.88;;;20.50;69.40;;;;;;5026129;28;20041;-47
2023/10/12 11:17:30;;;;;;;5.40;3.60;;;20.50;69.40;;;;;;5024513;28;20740;-47
2023/10/12 11:19:57;;;;;;;5.53;3.85;;;20.60;69.50;;;;;;5037366;28;20033;-49
2023/10/12 11:22:23;;;;;;;4.97;3.60;;;20.50;69.40;;;;;;5040167;28;20033;-49
2023/10/12 11:24:50;;;;;;;5.85;3.80;;;20.50;69.50;;;;;;5023884;28;20034;-49
2023/10/12 11:27:35;;;;;;;5.43;3.75;;;20.50;69.50;;;;;;5021257;28;20037;-49
2023/10/12 11:30:18;;;;;;;5.10;3.40;;;20.50;69.40;;;;;;5026238;28;20102;-52
2023/10/12 11:32:54;;;;;;;5.40;3.50;;;20.50;69.40;;;;;;5028095;28;20025;-52
2023/10/12 11:35:33;;;;;;;6.10;3.90;;;20.50;69.50;;;;;;5022670;28;20040;-52
2023/10/12 11:38:00;;;;;;;5.15;3.92;;;20.50;69.40;;;;;;5022161;28;20036;-46
2023/10/12 11:40:31;;;;;;;6.90;4.07;;;20.50;69.50;;;;;;5024841;28;20425;-53
2023/10/12 11:42:57;;;;;;;4.75;3.47;;;20.50;69.40;;;;;;5012818;28;20238;-49
2023/10/12 11:45:32;;;;;;;5.45;3.80;;;20.50;69.40;;;;;;5020870;28;20814;-50
2023/10/12 11:48:00;;;;;;;;;;;20.50;69.40;;;;;;5028412;28;20057;-49
2023/10/12 11:50:32;;;;;;;6.82;4.28;;;20.60;69.50;;;;;;5032368;28;19936;-52
2023/10/12 11:52:57;;;;;;;5.55;4.00;;;20.50;69.40;;;;;;5025905;28;20370;-49
2023/10/12 11:55:27;;;;;;;4.60;3.88;;;20.50;69.50;;;;;;5022546;28;20032;-48
2023/10/12 11:57:59;;;;;;;5.40;3.75;;;20.60;69.50;;;;;;5025580;28;20048;-48
2023/10/12 12:00:36;;;;;;;5.97;4.10;;;20.50;69.40;;;;;;5026341;28;20051;-49
2023/10/12 12:03:08;;;;;;;6.10;3.47;;;20.60;69.40;;;;;;5023789;28;20026;-49
2023/10/12 12:05:36;;;;;;;5.70;3.25;;;20.50;69.40;;;;;;5025295;28;20159;-49
2023/10/12 12:08:13;;;;;;;6.57;3.92;;;20.50;69.50;;;;;;5021199;28;20017;-48
2023/10/12 12:10:45;;;;;;;4.70;3.70;;;20.50;69.40;;;;;;5023654;28;20350;-49
2023/10/12 12:13:12;;;;;;;5.13;3.80;;;20.50;69.50;;;;;;5022619;28;20033;-48
2023/10/12 12:15:44;;;;;;;5.55;3.10;;;20.50;69.60;;;;;;5023508;28;20115;-48
2023/10/12 12:18:17;;;;;;;4.38;3.50;;;20.50;69.50;;;;;;5029492;28;20025;-48
2023/10/12 12:20:44;;;;;;;5.05;3.63;;;20.50;69.50;;;;;;5023102;28;20029;-49
2023/10/12 12:23:10;;;;;;;4.78;3.88;;;20.50;69.60;;;;;;5029608;28;20025;-47
2023/10/12 12:25:39;;;;;;;6.43;3.78;;;20.50;69.50;;;;;;5020705;28;20093;-56
2023/10/12 12:28:07;;;;;;;5.00;3.42;;;20.50;69.50;;;;;;5029702;28;20056;-49
2023/10/12 12:30:35;;;;;;;6.05;4.18;;;20.50;69.50;;;;;;5026792;28;20036;-49
2023/10/12 12:33:08;;;;;;;6.07;3.30;;;20.50;69.40;;;;;;5021573;28;20049;-46
2023/10/12 12:35:36;;;;;;;6.43;3.75;;;20.50;69.50;;;;;;5018188;28;20040;-47
2023/10/12 12:38:06;;;;;;;5.95;3.55;;;20.50;69.50;;;;;;5021526;28;20107;-49
2023/10/12 12:40:38;;;;;;;4.57;3.15;;;20.50;69.60;;;;;;5027466;28;20033;-48
2023/10/12 12:43:07;;;;;;;5.00;3.72;;;20.50;69.50;;;;;;5028962;28;20033;-49
2023/10/12 12:45:35;;;;;;;6.10;3.45;;;20.50;69.50;;;;;;5030610;28;20175;-48
2023/10/12 12:48:01;;;;;;;5.72;3.38;;;20.50;69.50;;;;;;5027753;28;20041;-48
2023/10/12 12:50:28;;;;;;;4.07;3.10;;;20.50;69.50;;;;;;5026293;28;20064;-49
2023/10/12 12:52:54;;;;;;;6.28;4.00;;;20.50;69.50;;;;;;5024347;28;20098;-49
2023/10/12 12:55:22;;;;;;;5.72;3.90;;;20.50;69.50;;;;;;5026036;28;20497;-49
2023/10/12 12:57:47;;;;;;;5.40;3.97;;;20.50;69.50;;;;;;5027546;28;20052;-48
2023/10/12 13:00:19;;;;;;;5.90;3.45;;;20.50;69.60;;;;;;5026376;28;20069;-49
2023/10/12 13:02:46;;;;;;;6.40;3.72;;;20.50;69.60;;;;;;5037132;28;20041;-50
2023/10/12 13:05:12;;;;;;;7.20;4.43;;;20.50;69.50;;;;;;5025992;28;20026;-47
2023/10/12 13:07:38;;;;;;;6.32;3.72;;;20.50;69.60;;;;;;5041474;28;20036;-49
2023/10/12 13:10:06;;;;;;;4.10;3.58;;;20.50;69.50;;;;;;5028650;28;20029;-47
2023/10/12 13:12:33;;;;;;;4.65;3.88;;;20.50;69.60;;;;;;5030930;28;20029;-47
2023/10/12 13:15:02;;;;;;;5.85;3.92;;;20.50;69.60;;;;;;5040161;28;20138;-48
2023/10/12 13:17:30;;;;;;;4.78;3.70;;;20.50;69.60;;;;;;5026711;28;20029;-47
2023/10/12 13:19:59;;;;;;;6.20;3.58;;;20.50;69.60;;;;;;5025316;28;25225;-50
2023/10/12 13:22:26;;;;;;;4.85;3.78;;;20.50;69.70;;;;;;5023153;28;20025;-48
2023/10/12 13:24:56;;;;;;;6.13;3.47;;;20.50;69.60;;;;;;5025260;28;20690;-49
2023/10/12 13:27:24;;;;;;;6.10;4.10;;;20.50;69.70;;;;;;5025241;28;20521;-52
2023/10/12 13:29:50;;;;;;;6.60;3.55;;;20.50;69.80;;;;;;5021928;28;20780;-47
2023/10/12 13:32:18;;;;;;;5.15;3.47;;;20.50;70.30;;;;;;5022453;28;20064;-48
2023/10/12 13:34:44;;;;;;;6.55;3.85;;;20.50;69.70;;;;;;5027176;28;20505;-48
2023/10/12 13:37:13;;;;;;;6.50;3.47;;;20.50;69.60;;;;;;5039424;28;20739;-48
2023/10/12 13:39:39;;;;;;;5.22;3.60;;;20.50;69.60;;;;;;5027784;28;20018;-49
2023/10/12 13:42:11;;;;;;;5.07;4.05;;;20.50;69.60;;;;;;5033166;28;20402;-49
2023/10/12 13:44:39;;;;;;;3.92;3.30;;;20.50;69.60;;;;;;5030478;28;20035;-52
2023/10/12 13:47:07;;;;;;;5.28;3.70;;;20.50;69.60;;;;;;5035758;28;20055;-52
2023/10/12 13:49:34;;;;;;;6.78;3.65;;;20.50;69.60;;;;;;5027749;28;20450;-48
2023/10/12 13:52:03;;;;;;;6.38;3.65;;;20.50;69.70;;;;;;5025119;28;21315;-48
2023/10/12 13:54:31;;;;;;;5.55;3.42;;;20.50;69.70;;;;;;5023080;28;20030;-47
2023/10/12 13:57:01;;;;;;;4.85;3.15;;;20.50;69.60;;;;;;5026227;28;20033;-48
2023/10/12 13:59:27;;;;;;;5.90;3.70;;;20.50;69.70;;;;;;5027328;28;20128;-47
2023/10/12 14:01:53;;;;;;;5.40;3.85;;;20.50;69.70;;;;;;5026529;28;20067;-48
2023/10/12 14:04:33;;;;;;;8.10;3.70;;;20.50;69.70;;;;;;5026359;28;20033;-47
2023/10/12 14:07:03;;;;;;;4.32;3.40;;;20.50;69.70;;;;;;5022948;28;20057;-47
2023/10/12 14:09:31;;;;;;;5.05;3.30;;;20.50;69.70;;;;;;5026119;28;20060;-47
2023/10/12 14:11:57;;;;;;;6.05;3.78;;;20.50;69.70;;;;;;5026697;28;20033;-47
2023/10/12 14:14:24;;;;;;;5.55;3.97;;;20.50;69.60;;;;;;5031036;28;20044;-48
2023/10/12 14:16:50;;;;;;;4.75;3.58;;;20.50;69.60;;;;;;5028390;28;20071;-46
2023/10/12 14:19:16;;;;;;;6.35;3.50;;;20.50;69.60;;;;;;5020560;28;20090;-50
2023/10/12 14:21:43;;;;;;;8.68;4.15;;;20.50;69.60;;;;;;5023899;28;20033;-50
2023/10/12 14:24:09;;;;;;;5.53;3.78;;;20.50;69.60;;;;;;5014966;28;20029;-54
2023/10/12 14:26:35;;;;;;;9.38;4.32;;;20.50;69.60;;;;;;5025773;28;20033;-50
2023/10/12 14:29:05;;;;;;;6.85;3.85;;;20.50;69.60;;;;;;5024184;28;20029;-52
2023/10/12 14:31:32;;;;;;;6.95;3.88;;;20.50;69.50;;;;;;5024991;28;20033;-48
2023/10/12 14:33:59;;;;;;;6.07;4.03;;;20.50;69.60;;;;;;5023290;28;20121;-47
2023/10/12 14:36:26;;;;;;;5.57;3.58;;;20.50;69.60;;;;;;5027450;28;20033;-49
2023/10/12 14:38:54;;;;;;;5.65;4.03;;;20.50;69.50;;;;;;5025156;28;20083;-48
2023/10/12 14:41:25;;;;;;;6.57;4.05;;;20.50;69.60;;;;;;5028268;28;20045;-51
2023/10/12 14:43:50;;;;;;;4.95;3.60;;;20.50;69.60;;;;;;5026709;28;20056;-49
2023/10/12 14:46:19;;;;;;;4.85;3.05;;;20.50;69.60;;;;;;5026474;28;20495;-48
2023/10/12 14:48:49;;;;;;;5.18;3.88;;;20.50;69.60;;;;;;5022056;28;20076;-47
2023/10/12 14:51:17;;;;;;;5.00;3.85;;;20.50;69.60;;;;;;5024529;28;20065;-49
2023/10/12 14:53:50;;;;;;;5.25;4.15;;;20.50;69.60;;;;;;5021618;28;20029;-47
2023/10/12 14:56:23;;;;;;;5.50;3.80;;;20.50;69.60;;;;;;5036020;28;20090;-50
2023/10/12 14:58:50;;;;;;;5.53;3.75;;;20.50;69.60;;;;;;5023735;28;20025;-48
2023/10/12 15:01:17;;;;;;;6.25;3.97;;;20.50;69.50;;;;;;5023118;28;20071;-49
2023/10/12 15:03:45;;;;;;;4.88;3.67;;;20.50;69.60;;;;;;5026291;28;20541;-47
2023/10/12 15:06:12;;;;;;;7.20;3.95;;;20.50;69.60;;;;;;5022995;28;20558;-47
2023/10/12 15:08:38;;;;;;;6.50;4.22;;;20.50;69.50;;;;;;5028397;28;20029;-49
2023/10/12 15:11:05;;;;;;;7.15;4.13;;;20.50;69.60;;;;;;5021841;28;20067;-48
2023/10/12 15:13:32;;;;;;;7.18;4.03;;;20.40;69.50;;;;;;5031499;28;20049;-47
2023/10/12 15:15:58;;;;;;;7.80;4.07;;;20.50;69.60;;;;;;5022659;28;20064;-49
2023/10/12 15:18:24;;;;;;;5.90;3.75;;;20.50;69.60;;;;;;5022058;28;20037;-48
2023/10/12 15:20:52;;;;;;;6.55;4.10;;;20.50;69.60;;;;;;5024908;28;20044;-48
2023/10/12 15:23:19;;;;;;;7.15;4.20;;;20.40;69.60;;;;;;5022254;28;20323;-46
2023/10/12 15:25:44;;;;;;;7.05;4.65;;;20.50;69.60;;;;;;5023492;28;20029;-49